Weather observations for the past three days for
Williamson-Sodus Airport
Metric (Imperial)
Date Time (edt) Wind (kph) Vis. (km) Weather Sky Cond. Temperature (ºC) Relative Humidity Wind Chill (°C) Heat Index (°C) Pressure Precipitation (cm)
Air Dwpt 6 hour altimeter (cm) sea level (mb) 1 hr 3 hr 6 hr
Max. Min.
04 20:35 NW 6 16.09 Fair CLR 16 4 45% 75.26 0.0
04 20:15 Calm 16.09 Fair CLR 17 4 42% 75.23 0.0
04 19:55 Calm 16.09 Fair CLR 20 3 33% 75.23 0.0
04 19:35 Calm 16.09 Fair CLR 21 2 29% 75.23 0.0
04 19:15 SW 6 16.09 Fair CLR 22 1 25% 75.23 0.0
04 18:55 W 11 16.09 Fair CLR 23 1 23% 75.21 0.0
04 18:35 SW 11 16.09 Fair CLR 23 1 23% 75.23 0.0
04 18:15 SW 17 G 26 16.09 Fair CLR 23 1 23% 75.23 0.0
04 17:55 SW 15 G 26 16.09 Fair CLR 23 1 23% 75.26 0.0
04 17:35 SW 13 16.09 Partly Cloudy SCT100 24 2 24% 25 75.26 0.0
04 17:15 W 17 G 30 16.09 Partly Cloudy SCT100 23 1 23% 75.29 0.0
04 16:55 W 15 G 30 16.09 Fair CLR 23 2 25% 75.29 0.0
04 16:35 SW 22 G 31 16.09 Partly Cloudy SCT085 24 2 24% 25 75.29 0.0
04 16:15 SW 17 G 31 16.09 Partly Cloudy SCT085 23 2 25% 75.31 0.0
04 15:55 W 17 G 31 16.09 Fair CLR 23 3 27% 75.34 0.0
04 15:35 SW 19 G 35 16.09 Fair CLR 23 3 27% 75.36 0.0
04 15:15 SW 22 G 35 16.09 Fair CLR 23 3 27% 75.36 0.0
04 14:55 SW 24 G 33 16.09 Fair CLR 22 4 31% 75.39 0.0
04 14:35 W 17 G 35 16.09 Fair CLR 22 3 29% 75.39 0.0
04 14:15 W 19 G 31 16.09 Fair CLR 22 3 29% 75.39 0.0
04 13:55 SW 20 G 33 16.09 Fair CLR 22 4 31% 75.41 0.0
04 13:35 W 13 G 30 16.09 Fair CLR 21 3 31% 75.41 0.0
04 13:15 W 15 G 31 16.09 Fair CLR 21 4 33% 75.44 0.0
04 12:55 SW 19 G 26 16.09 Fair CLR 20 3 33% 75.46 0.0
04 12:35 SW 24 G 31 16.09 Fair CLR 20 3 33% 75.49 0.0
04 12:15 SW 19 G 33 16.09 Fair CLR 19 3 35% 75.49 0.0
04 11:55 SW 15 16.09 Fair CLR 18 3 37% 75.49 0.0
04 11:35 SW 22 G 31 16.09 Fair CLR 18 3 37% 75.49 0.0
04 11:15 SW 15 G 30 16.09 Fair CLR 18 3 37% 75.51 0.0
04 10:55 SW 19 G 35 16.09 Fair CLR 17 2 37% 75.51 0.0
04 10:35 SW 24 G 35 16.09 Fair CLR 17 2 37% 75.51 0.0
04 10:15 SW 28 G 39 16.09 Fair CLR 16 2 39% 75.51 0.0
04 09:55 SW 22 G 31 16.09 Fair CLR 16 2 39% 75.54 0.0
04 09:35 SW 17 G 28 16.09 Partly Cloudy SCT095 16 2 39% 75.54 0.0
04 09:15 SW 13 G 26 16.09 Partly Cloudy SCT095 SCT120 15 1 39% 75.54 0.0
04 08:55 SW 11 16.09 Partly Cloudy SCT120 15 1 39% 75.57 0.0
04 08:35 SW 11 16.09 Partly Cloudy SCT070 SCT085 13 1 44% 75.57 0.0
04 08:15 SW 17 16.09 Overcast BKN070 OVC085 12 1 47% 75.57 0.0
04 07:55 SW 13 16.09 Overcast BKN060 OVC085 12 0 44% 75.57 0.0
04 07:35 SW 17 16.09 Overcast OVC075 11 0 47% 75.57 0.0
04 07:15 SW 15 G 26 16.09 Overcast SCT075 BKN095 OVC120 11 0 47% 75.54 0.0
04 06:55 SW 17 G 26 16.09 Overcast SCT065 SCT075 OVC110 11 0 47% 75.54 0.0
04 06:35 SW 15 G 28 16.09 Overcast BKN065 OVC090 11 0 47% 75.54 0.0
04 06:15 SW 11 16.09 Mostly Cloudy BKN090 11 0 47% 75.54 0.0
04 05:55 SW 13 16.09 Overcast SCT080 OVC090 11 0 47% 75.54 0.0
04 05:35 SW 15 G 28 16.09 Overcast BKN090 OVC110 11 0 47% 75.54 0.0
04 05:15 S 13 16.09 Overcast SCT080 BKN090 OVC110 11 0 47% 75.54 0.0
04 04:55 SW 15 16.09 Overcast SCT075 OVC100 11 0 47% 75.57 0.0
04 04:35 SW 15 G 26 16.09 Mostly Cloudy BKN110 11 0 47% 75.57 0.0
04 04:15 SW 19 16.09 Fair CLR 11 0 47% 75.59 0.0
04 03:55 SW 15 16.09 Fair CLR 11 0 47% 75.59 0.0
04 03:35 SW 17 G 30 16.09 Partly Cloudy SCT090 11 0 47% 75.62 0.0
04 03:15 SW 15 16.09 Overcast OVC090 11 0 47% 75.62 0.0
04 02:55 SW 9 16.09 Overcast OVC100 11 0 47% 75.64 0.0
04 02:35 SW 13 16.09 Overcast OVC110 11 0 47% 75.64 0.0
04 02:15 SW 13 16.09 Mostly Cloudy BKN110 11 0 47% 75.64 0.0
04 01:55 SW 13 16.09 Partly Cloudy SCT120 11 0 47% 75.64 0.0
04 01:35 SW 15 16.09 Partly Cloudy SCT085 11 0 47% 75.67 0.0
04 01:15 SW 9 16.09 Partly Cloudy SCT085 11 0 47% 75.67 0.0
04 00:55 SW 9 16.09 Overcast SCT075 OVC090 12 0 44% 75.67 0.0
04 00:35 SW 9 16.09 Overcast OVC080 12 1 47% 75.67 0.0
04 00:15 SW 9 16.09 Overcast OVC080 12 1 47% 75.67 0.0
03 23:55 SW 9 16.09 Overcast OVC080 11 1 50% 75.67 0.0
03 23:35 Calm 16.09 Overcast OVC070 11 2 54% 75.67 0.0
03 23:15 SW 6 16.09 Overcast OVC070 11 2 54% 75.69 0.0
03 22:55 SW 7 16.09 Overcast OVC070 11 2 54% 75.69 0.0
03 22:35 SW 11 16.09 Overcast BKN070 OVC080 11 3 58% 75.72 0.0
03 22:15 SW 7 16.09 Overcast BKN070 OVC090 10 4 67% 9 75.72 0.0
03 21:55 SW 6 16.09 Overcast BKN070 OVC090 10 5 71% 75.72 0.0
03 21:35 SW 6 16.09 Overcast OVC070 10 5 71% 75.74 0.0
03 21:15 W 7 16.09 Overcast OVC070 10 5 71% 9 75.74 0.0
03 20:55 W 9 16.09 Rain SCT043 BKN049 OVC070 10 4 67% 9 75.77 0.0
03 20:35 W 9 16.09 Light Rain SCT049 OVC060 10 3 62% 9 75.77 0.0
03 20:15 W 13 G 44 16.09 Rain SCT047 OVC050 11 3 58% 75.74 0.0
03 19:55 W 24 G 41 16.09 Light Rain SCT049 OVC060 12 1 47% 75.74 0.0
03 19:35 W 19 G 41 16.09 Overcast BKN065 OVC070 13 0 41% 75.72 0.0
03 19:15 W 24 G 31 16.09 Overcast SCT065 OVC080 12 0 44% 75.69 0.0
03 18:55 SW 6 16.09 Overcast SCT075 OVC090 11 0 47% 75.69 0.0
03 18:35 E 6 16.09 Overcast SCT050 BKN075 OVC085 11 -1 44% 75.69 0.0
03 18:15 NW 9 16.09 Overcast SCT050 BKN070 OVC075 11 0 47% 75.74 0.0
03 17:55 NW 6 16.09 Overcast BKN070 OVC085 12 0 44% 75.74 0.0
03 17:35 N 7 16.09 Overcast OVC080 13 -1 38% 75.69 0.0
03 17:15 Calm 16.09 Overcast OVC080 13 -1 38% 75.69 0.0
03 16:55 NW 7 16.09 Mostly Cloudy BKN090 BKN110 13 -1 38% 75.72 0.0
03 16:35 W 11 G 30 16.09 Mostly Cloudy BKN110 14 -3 31% 75.72 0.0
03 16:15 W 9 16.09 Mostly Cloudy BKN110 14 -2 33% 75.74 0.0
03 15:55 N 7 16.09 Mostly Cloudy BKN095 13 -1 38% 75.77 0.0
03 15:35 Calm 16.09 Partly Cloudy SCT075 SCT095 13 0 41% 75.82 0.0
03 15:15 NW 7 16.09 Mostly Cloudy SCT050 BKN065 BKN085 13 -1 38% 75.84 0.0
03 14:35 W 9 16.09 Mostly Cloudy SCT070 BKN090 12 -1 41% 75.87 0.0
03 14:15 W 11 16.09 Overcast BKN070 OVC080 12 -1 41% 75.9 0.0
03 13:55 N 11 16.09 Overcast OVC080 12 -1 41% 75.9 0.0
03 13:35 N 13 16.09 Overcast BKN080 OVC090 12 -1 41% 75.92 0.0
03 13:15 N 11 16.09 Mostly Cloudy BKN090 11 -2 41% 75.92 0.0
03 12:55 NW 7 16.09 Partly Cloudy SCT090 12 -2 38% 75.92 0.0
03 12:35 Calm 16.09 Fair CLR 11 -3 38% 75.95 0.0
03 12:15 NW 11 16.09 Fair CLR 11 -4 35% 75.97 0.0
03 11:55 W 7 16.09 Fair CLR 11 -4 35% 76 0.0
03 11:35 N 7 16.09 Fair CLR 11 -4 35% 76.02 0.0
03 11:15 NW 9 16.09 Fair CLR 10 -4 37% 9 76.02 0.0
03 10:55 NW 11 16.09 Fair CLR 10 -3 40% 9 76.05 0.0
03 10:35 W 9 16.09 Fair CLR 10 -5 35% 9 76.05 0.0
03 10:15 W 9 G 28 16.09 Fair CLR 9 -5 37% 8 76.07 0.0
03 09:55 NW 13 16.09 Fair CLR 8 -5 40% 6 76.07 0.0
03 09:35 W 13 16.09 Fair CLR 8 -5 40% 6 76.07 0.0
03 09:15 NW 9 16.09 Fair CLR 7 -5 43% 5 76.1 0.0
03 08:55 W 6 16.09 Fair CLR 7 -2 53% 76.1 0.0
03 08:35 W 11 16.09 Fair CLR 6 -1 61% 4 76.1 0.0
03 08:15 Calm 16.09 Fair CLR 5 0 70% 76.1 0.0
03 07:55 W 7 16.09 Fair CLR 4 0 75% 2 76.1 0.0
03 07:35 W 7 16.09 Fair CLR 3 0 81% 1 76.07 0.0
03 07:15 W 7 16.09 Fair CLR 3 0 81% 1 76.07 0.0
03 06:55 W 6 16.09 Fair CLR 2 0 87% 76.05 0.0
03 06:35 W 6 16.09 Fair CLR 1 -1 87% 76.05 0.0
03 06:15 Calm 16.09 Fair CLR 0 -1 93% 76.05 0.0
03 05:55 Calm 16.09 Fair CLR 1 -1 87% 76.02 0.0
03 05:35 Calm 16.09 Fair CLR 1 -1 87% 76.05 0.0
03 05:15 Calm 16.09 Fair CLR 1 -1 87% 76.02 0.0
03 04:55 Calm 16.09 Fair CLR 1 -1 87% 76.05 0.0
03 04:35 Calm 16.09 Fair CLR 2 -1 81% 76.05 0.0
03 04:15 Calm 16.09 Fair CLR 2 -1 81% 76.05 0.0
03 03:55 W 6 16.09 Fair CLR 2 0 87% 76.05 0.0
03 03:35 SW 7 16.09 Fair CLR 3 0 81% 1 76.05 0.0
03 03:15 W 6 16.09 Partly Cloudy SCT090 3 -1 75% 76.05 0.0
03 02:55 W 6 16.09 Mostly Cloudy BKN090 4 0 75% 76.05 0.0
03 02:35 W 6 16.09 Overcast OVC090 4 0 75% 76.05 0.0
03 02:15 W 7 16.09 Overcast OVC090 4 0 75% 2 76.05 0.0
03 01:55 W 6 16.09 Overcast OVC090 5 0 70% 76.05 0.0
03 01:35 W 6 16.09 Overcast OVC090 5 0 70% 76.07 0.0
03 01:15 W 6 16.09 Overcast OVC090 5 0 70% 76.1 0.0
03 00:55 W 7 16.09 Overcast OVC090 5 0 70% 4 76.1 0.0
03 00:35 W 6 16.09 Overcast OVC090 5 0 70% 76.1 0.0
03 00:15 W 6 16.09 Overcast OVC090 5 0 70% 76.1 0.0
02 23:55 W 6 16.09 Overcast OVC090 5 0 70% 76.12 0.0
02 23:35 SW 6 16.09 Overcast OVC090 5 0 70% 76.12 0.0
02 23:15 SW 7 16.09 Overcast OVC090 5 0 70% 4 76.12 0.0
02 22:55 W 7 16.09 Overcast OVC090 5 0 70% 4 76.12 0.0
02 22:15 W 6 16.09 Overcast OVC090 5 0 70% 76.15 0.0
02 21:55 Calm 16.09 Overcast OVC090 5 0 70% 76.15 0.0
02 21:35 Calm 16.09 Overcast OVC090 5 -1 66% 76.15 0.0
02 21:15 Calm 16.09 Overcast OVC090 5 -1 66% 76.15 0.0
02 20:55 Calm 16.09 Overcast OVC090 6 -1 61% 76.12 0.0
02 20:35 Calm 16.09 Overcast OVC090 6 -2 57% 76.12 0.0
02 20:15 NW 6 16.09 Overcast OVC090 6 -2 57% 76.12 0.0
02 19:55 W 6 16.09 Overcast OVC080 6 -2 57% 76.1 0.0
02 19:35 W 7 16.09 Overcast OVC080 6 -2 57% 5 76.1 0.0
02 19:15 W 7 16.09 Overcast OVC080 6 -1 61% 5 76.1 0.0
02 18:55 NW 6 16.09 Overcast OVC080 6 -1 61% 76.1 0.0
02 18:35 NW 7 16.09 Overcast OVC080 6 -1 61% 5 76.1 0.0
02 18:15 NW 15 16.09 Overcast OVC080 6 -1 61% 3 76.1 0.0
02 17:55 W 11 16.09 Overcast OVC080 6 -1 61% 4 76.1 0.0
02 17:35 NW 9 G 26 16.09 Overcast OVC080 6 -1 61% 4 76.1 0.0
02 17:15 NW 9 16.09 Overcast OVC080 6 0 66% 4 76.1 0.0
02 16:55 W 9 16.09 Mostly Cloudy BKN080 7 0 61% 5 76.1 0.0
02 16:35 NW 15 16.09 Mostly Cloudy BKN080 7 0 61% 5 76.1 0.0
02 16:15 W 6 16.09 Overcast OVC080 7 0 61% 76.1 0.0
02 15:55 NW 17 16.09 Overcast OVC080 6 0 66% 3 76.12 0.0
02 15:35 W 13 16.09 Mostly Cloudy BKN080 6 -1 61% 4 76.12 0.0
02 15:15 NW 11 G 26 16.09 Fair CLR 8 0 57% 6 76.12 0.0
02 14:55 NW 17 G 26 16.09 Fair CLR 7 0 61% 4 76.12 0.0
02 14:35 NW 11 G 28 16.09 Fair CLR 7 0 61% 5 76.12 0.0
02 14:15 NW 19 G 26 16.09 Fair CLR 7 -1 57% 4 76.12 0.0
02 13:55 W 17 G 30 16.09 Partly Cloudy SCT065 7 -1 57% 4 76.12 0.0
02 13:35 W 15 G 28 16.09 Partly Cloudy SCT065 7 -1 57% 5 76.12 0.0
02 13:15 NW 19 G 30 16.09 Partly Cloudy SCT065 7 -2 53% 4 76.12 0.0
02 12:35 NW 17 G 31 16.09 Partly Cloudy SCT060 6 -2 57% 3 76.12 0.0
02 12:15 NW 11 G 26 16.09 Mostly Cloudy BKN060 7 -1 57% 5 76.12 0.0
02 11:55 NW 15 16.09 Partly Cloudy SCT060 7 -2 53% 5 76.12 0.0
02 11:35 W 15 G 26 16.09 Fair CLR 6 -2 57% 3 76.12 0.0
02 11:15 W 15 G 28 16.09 Fair CLR 6 -1 61% 3 76.12 0.0
02 10:55 NW 13 G 30 16.09 Fair CLR 7 -1 57% 5 76.12 0.0
02 10:35 W 11 16.09 Partly Cloudy SCT036 7 -2 53% 5 76.12 0.0
02 10:15 W 11 16.09 Partly Cloudy SCT034 7 -1 57% 5 76.12 0.0
02 09:55 W 9 16.09 Partly Cloudy SCT031 SCT037 6 -1 61% 4 76.15 0.0
02 09:35 W 15 16.09 Partly Cloudy SCT025 SCT031 6 0 66% 3 76.15 0.0
02 09:15 W 11 16.09 Partly Cloudy SCT026 6 0 66% 4 76.17 0.0
02 08:55 W 15 16.09 Mostly Cloudy BKN024 5 0 70% 2 76.17 0.0
02 08:35 W 17 16.09 Mostly Cloudy BKN022 4 0 75% 1 76.17 0.0
02 08:15 W 15 16.09 Mostly Cloudy BKN020 BKN025 4 0 75% 1 76.17 0.0
02 07:55 W 13 16.09 Partly Cloudy SCT020 3 1 87% 0 76.17 0.0
02 07:35 W 9 16.09 Fair CLR 3 1 87% 1 76.17 0.0
02 07:15 W 7 16.09 Partly Cloudy SCT015 2 0 87% 0 76.15 0.0
02 06:55 W 6 16.09 Partly Cloudy SCT040 2 0 87% 76.12 0.0
02 06:35 W 6 16.09 Mostly Cloudy BKN040 2 0 87% 76.12 0.0
02 06:15 W 9 16.09 Mostly Cloudy BKN042 2 0 87% -0 76.1 0.0
02 05:55 W 6 16.09 Fair CLR 2 0 87% 76.1 0.0
02 05:35 W 6 16.09 Partly Cloudy SCT038 3 1 87% 76.07 0.0
02 05:15 W 9 16.09 Mostly Cloudy SCT031 BKN037 3 1 87% 1 76.07 0.0
02 04:55 W 9 16.09 Overcast BKN030 BKN043 OVC070 3 1 87% 1 76.05 0.0
02 04:35 W 7 16.09 Overcast BKN026 OVC033 3 2 93% 1 76.02 0.0
02 04:15 Calm 16.09 Overcast BKN024 BKN032 OVC060 3 2 93% 76.02 0.0
02 03:55 W 6 16.09 Overcast SCT014 BKN022 OVC032 4 3 93% 76 0.0
02 03:35 W 6 16.09 Overcast SCT014 BKN022 OVC065 5 3 87% 76 0.0
02 03:15 SW 7 16.09 Overcast SCT045 OVC065 5 3 87% 4 76 0.0
02 02:55 Calm 16.09 Overcast BKN043 OVC055 5 3 87% 76 0.0
02 02:35 Calm 11.27 Overcast SCT045 OVC055 4 3 93% 76 0.0
02 02:15 Calm 11.27 Overcast BKN060 OVC070 4 3 93% 76.02 0.0
02 01:55 Calm 16.09 Overcast OVC070 4 3 93% 76 0.0
02 01:35 Calm 8.05 Fog/Mist BKN075 OVC080 3 3 100% 76.02 0.0
02 01:15 Calm 6.44 Fog/Mist BKN075 OVC100 3 2 93% 76.02 0.0
02 00:55 Calm 4.83 Fog/Mist SCT085 BKN100 3 2 93% 76.02 0.0
02 00:35 Calm 8.05 Fog/Mist SCT090 BKN110 3 2 93% 76.02 0.0
02 00:15 Calm 11.27 Overcast SCT090 OVC110 3 2 93% 76.02 0.0
01 23:55 Calm 11.27 Overcast OVC090 4 3 93% 76.02 0.0
01 23:35 Calm 11.27 Overcast OVC110 4 3 93% 76.02 0.0
01 23:15 Calm 11.27 Mostly Cloudy BKN120 4 2 87% 76.02 0.0
01 22:55 Calm 11.27 Partly Cloudy SCT095 SCT120 4 2 87% 76.02 0.0
01 22:35 Calm 11.27 Fair CLR 4 2 87% 76.02 0.0
01 22:15 Calm 11.27 Fair CLR 4 2 87% 76.02 0.0
01 21:55 Calm 16.09 Fair CLR 5 3 87% 76.02 0.0
01 21:35 Calm 16.09 Partly Cloudy SCT075 SCT100 5 3 87% 76.02 0.0
01 21:15 Calm 16.09 Overcast SCT049 BKN075 OVC090 5 3 87% 76 0.0
01 20:55 Calm 16.09 Overcast BKN049 OVC060 5 3 87% 75.97 0.0
Date Time (edt) Wind (kph) Vis. (km) Weather Sky Cond. Air Dwpt Max. Min. Relative Humidity Wind Chill (°C) Heat Index (°C) altimeter (cm) sea level (mb) 1 hr 3 hr 6 hr
6 hour
Temperature (ºC) Pressure Precipitation (cm)